createdAt,value
2018-12-19T00:00:19.008Z,94.10
2018-12-19T00:02:56.496Z,94.20
2018-12-19T00:05:34.019Z,94.20
2018-12-19T00:08:11.505Z,94.20
2018-12-19T00:10:49.014Z,94.20
2018-12-19T00:13:26.537Z,94.30
2018-12-19T00:16:04.040Z,94.30
2018-12-19T00:18:41.544Z,94.50
2018-12-19T00:21:19.068Z,94.40
2018-12-19T00:23:56.576Z,94.40
2018-12-19T00:26:34.061Z,94.40
2018-12-19T00:29:11.586Z,94.50
2018-12-19T00:31:49.069Z,94.50
2018-12-19T00:34:26.590Z,94.70
2018-12-19T00:37:04.082Z,94.40
2018-12-19T00:39:41.612Z,94.30
2018-12-19T00:42:19.098Z,94.30
2018-12-19T00:44:56.610Z,94.20
2018-12-19T00:47:34.118Z,94.30
2018-12-19T00:50:11.905Z,94.30
2018-12-19T00:52:49.403Z,94.40
2018-12-19T00:55:26.917Z,94.40
2018-12-19T00:58:04.407Z,94.50
2018-12-19T01:00:41.948Z,94.50
2018-12-19T01:03:19.439Z,94.60
2018-12-19T01:05:56.959Z,94.50
2018-12-19T01:08:34.438Z,94.50
2018-12-19T01:11:11.932Z,94.40
2018-12-19T01:13:49.454Z,94.40
2018-12-19T01:16:26.963Z,94.50
2018-12-19T01:19:04.482Z,94.50
2018-12-19T01:21:42.049Z,94.60
2018-12-19T01:24:19.561Z,94.70
2018-12-19T01:26:57.064Z,94.80
2018-12-19T01:29:34.604Z,94.80
2018-12-19T01:32:12.084Z,94.90
2018-12-19T01:34:49.599Z,95.00
2018-12-19T01:37:27.108Z,95.10
2018-12-19T01:40:04.615Z,95.10
2018-12-19T01:42:42.124Z,95.10
2018-12-19T01:45:19.640Z,95.20
2018-12-19T01:47:57.126Z,95.20
2018-12-19T01:50:34.648Z,95.20
2018-12-19T01:53:12.148Z,95.20
2018-12-19T01:55:49.664Z,95.10
2018-12-19T01:58:27.164Z,95.20
2018-12-19T02:01:04.705Z,95.20
2018-12-19T02:03:42.181Z,95.30
2018-12-19T02:06:19.695Z,95.40
2018-12-19T02:08:57.179Z,95.40
2018-12-19T02:11:34.680Z,95.50
2018-12-19T02:14:12.197Z,95.50
2018-12-19T02:16:49.685Z,95.50
2018-12-19T02:19:27.199Z,95.30
2018-12-19T02:22:04.703Z,95.30
2018-12-19T02:24:42.244Z,95.30
2018-12-19T02:27:20.008Z,95.40
2018-12-19T02:29:57.515Z,95.50
2018-12-19T02:32:35.005Z,95.70
2018-12-19T02:35:12.519Z,95.80
2018-12-19T02:37:50.043Z,95.80
2018-12-19T02:40:27.530Z,95.70
2018-12-19T02:43:05.007Z,95.50
2018-12-19T02:45:42.564Z,95.50
2018-12-19T02:48:20.048Z,95.50
2018-12-19T02:50:57.574Z,95.50
2018-12-19T02:53:35.056Z,95.50
2018-12-19T02:56:12.605Z,95.50
2018-12-19T02:58:50.109Z,95.60
2018-12-19T03:01:27.623Z,95.60
2018-12-19T03:04:05.109Z,95.60
2018-12-19T03:06:42.611Z,95.70
2018-12-19T03:09:20.099Z,95.70
2018-12-19T03:11:57.631Z,95.80
2018-12-19T03:14:35.133Z,95.80
2018-12-19T03:17:12.636Z,95.80
2018-12-19T03:19:50.176Z,95.90
2018-12-19T03:22:27.676Z,95.90
2018-12-19T03:25:05.189Z,95.90
2018-12-19T03:27:42.690Z,95.90
2018-12-19T03:30:20.204Z,95.80
2018-12-19T03:32:57.689Z,95.80
2018-12-19T03:35:35.190Z,95.70
2018-12-19T03:38:24.891Z,95.60
2018-12-19T03:41:02.426Z,95.50
2018-12-19T03:43:39.939Z,95.40
2018-12-19T03:46:17.437Z,95.40
2018-12-19T03:48:58.651Z,95.40
2018-12-19T03:51:36.170Z,95.30
2018-12-19T03:54:13.684Z,95.30
2018-12-19T03:56:51.192Z,95.10
2018-12-19T03:59:28.682Z,94.90
2018-12-19T04:02:06.194Z,94.80
2018-12-19T04:04:43.986Z,94.80
2018-12-19T04:07:21.492Z,94.80
2018-12-19T04:09:58.977Z,94.80
2018-12-19T04:12:36.497Z,94.70
2018-12-19T04:15:14.025Z,95.00
2018-12-19T04:17:51.530Z,94.70
2018-12-19T04:20:29.063Z,94.80
2018-12-19T04:23:06.595Z,94.80
2018-12-19T04:25:44.113Z,94.80
2018-12-19T04:28:21.625Z,94.80
2018-12-19T04:30:59.148Z,94.70
2018-12-19T04:33:36.641Z,94.70
2018-12-19T04:36:14.165Z,94.60
2018-12-19T04:38:51.672Z,94.50
2018-12-19T04:41:29.204Z,94.40
2018-12-19T04:44:06.740Z,94.30
2018-12-19T04:46:44.249Z,94.20
2018-12-19T04:49:21.755Z,94.10
2018-12-19T04:51:59.271Z,94.00
2018-12-19T04:54:36.770Z,93.90
2018-12-19T04:57:14.290Z,94.00
2018-12-19T04:59:51.769Z,93.90
2018-12-19T05:02:29.295Z,93.90
2018-12-19T05:05:06.937Z,93.80
2018-12-19T05:07:44.452Z,93.80
2018-12-19T05:10:21.960Z,93.80
2018-12-19T05:12:59.478Z,93.70
2018-12-19T05:15:36.970Z,93.60
2018-12-19T05:18:14.492Z,93.50
2018-12-19T05:20:52.024Z,93.30
2018-12-19T05:23:29.511Z,93.20
2018-12-19T05:26:07.037Z,93.10
2018-12-19T05:28:44.527Z,93.00
2018-12-19T05:31:22.033Z,92.90
2018-12-19T05:33:59.518Z,92.70
2018-12-19T05:36:37.040Z,93.00
2018-12-19T05:39:14.522Z,92.50
2018-12-19T05:41:52.052Z,92.40
2018-12-19T05:44:29.543Z,92.30
2018-12-19T05:47:08.506Z,92.30
2018-12-19T05:49:44.567Z,92.30
2018-12-19T05:52:23.294Z,92.50
2018-12-19T05:54:59.635Z,92.10
2018-12-19T05:57:37.175Z,92.10
2018-12-19T06:00:14.655Z,92.30
2018-12-19T06:02:52.169Z,91.80
2018-12-19T06:05:29.682Z,91.80
2018-12-19T06:08:07.198Z,91.60
2018-12-19T06:10:44.694Z,91.40
2018-12-19T06:13:22.215Z,91.30
2018-12-19T06:15:59.710Z,91.20
2018-12-19T06:18:37.373Z,91.00
2018-12-19T06:21:14.913Z,91.10
2018-12-19T06:23:52.408Z,90.80
2018-12-19T06:26:29.941Z,90.80
2018-12-19T06:29:07.465Z,90.70
2018-12-19T06:31:44.986Z,90.60
2018-12-19T06:34:22.468Z,90.60
2018-12-19T06:36:59.977Z,90.50
2018-12-19T06:39:37.456Z,90.50
2018-12-19T06:42:14.971Z,90.30
2018-12-19T06:44:52.486Z,90.30
2018-12-19T06:47:29.983Z,90.20
2018-12-19T06:50:08.290Z,90.10
2018-12-19T06:52:45.822Z,90.00
2018-12-19T06:55:23.360Z,90.00
2018-12-19T06:58:00.855Z,89.80
2018-12-19T07:00:38.975Z,89.70
2018-12-19T07:03:16.499Z,89.50
2018-12-19T07:05:54.007Z,89.40
2018-12-19T07:08:31.513Z,89.20
2018-12-19T07:11:09.002Z,89.10
2018-12-19T07:13:46.549Z,89.10
2018-12-19T07:16:24.032Z,89.00
2018-12-19T07:19:01.579Z,88.90
2018-12-19T07:21:39.539Z,88.80
2018-12-19T07:24:17.032Z,88.70
2018-12-19T07:26:54.521Z,88.80
2018-12-19T07:29:32.042Z,88.80
2018-12-19T07:32:09.560Z,88.70
2018-12-19T07:34:47.063Z,88.60
2018-12-19T07:37:24.600Z,88.50
2018-12-19T07:40:02.103Z,88.40
2018-12-19T07:42:39.636Z,88.20
2018-12-19T07:45:17.155Z,88.00
2018-12-19T07:47:55.073Z,87.80
2018-12-19T07:50:32.563Z,87.60
2018-12-19T07:53:10.069Z,87.40
2018-12-19T07:55:59.333Z,87.20
2018-12-19T07:58:36.857Z,86.80
2018-12-19T08:01:14.377Z,86.50
2018-12-19T08:03:51.877Z,86.30
2018-12-19T08:06:29.367Z,86.20
2018-12-19T08:09:11.292Z,86.00
2018-12-19T08:11:46.838Z,85.90
2018-12-19T08:14:24.343Z,86.50
2018-12-19T08:17:01.840Z,85.40
2018-12-19T08:19:39.434Z,85.10
2018-12-19T08:22:16.922Z,84.90
2018-12-19T08:24:54.425Z,84.70
2018-12-19T08:27:31.964Z,84.50
2018-12-19T08:30:11.705Z,84.20
2018-12-19T08:32:50.024Z,83.90
2018-12-19T08:35:27.492Z,83.70
2018-12-19T08:38:05.051Z,83.40
2018-12-19T08:40:42.530Z,83.10
2018-12-19T08:43:20.046Z,82.80
2018-12-19T08:45:57.554Z,82.50
2018-12-19T08:48:35.065Z,82.20
2018-12-19T08:51:12.561Z,82.00
2018-12-19T08:53:50.080Z,82.00
2018-12-19T08:56:27.581Z,81.80
2018-12-19T08:59:05.098Z,81.60
2018-12-19T09:01:42.793Z,81.30
2018-12-19T09:04:25.787Z,81.10
2018-12-19T09:06:57.808Z,80.70
2018-12-19T09:09:35.356Z,80.60
2018-12-19T09:12:12.834Z,80.30
2018-12-19T09:14:50.431Z,80.20
2018-12-19T09:17:28.048Z,80.10
2018-12-19T09:20:05.606Z,80.00
2018-12-19T09:22:43.168Z,79.90
2018-12-19T09:25:21.660Z,79.90
2018-12-19T09:27:59.168Z,79.90
2018-12-19T09:30:36.648Z,79.90
2018-12-19T09:33:14.172Z,79.80
2018-12-19T09:35:52.483Z,79.70
2018-12-19T09:38:30.038Z,79.60
2018-12-19T09:41:12.312Z,79.50
2018-12-19T09:43:45.049Z,79.30
2018-12-19T09:46:22.554Z,79.30
2018-12-19T09:49:00.539Z,79.40
2018-12-19T09:51:38.085Z,79.50
2018-12-19T09:54:15.596Z,80.40
2018-12-19T09:56:54.177Z,81.20
2018-12-19T09:59:31.717Z,80.60
2018-12-19T10:02:09.224Z,79.70
2018-12-19T10:04:46.763Z,79.10
2018-12-19T10:07:24.266Z,78.80
2018-12-19T10:10:01.772Z,78.30
2018-12-19T10:12:39.291Z,78.10
2018-12-19T10:15:16.773Z,77.90
2018-12-19T10:17:54.272Z,78.00
2018-12-19T10:20:31.832Z,77.90
2018-12-19T10:23:09.363Z,77.90
2018-12-19T10:25:46.864Z,77.70
2018-12-19T10:28:49.087Z,77.50
2018-12-19T10:31:26.543Z,77.40
2018-12-19T10:34:04.067Z,77.10
2018-12-19T10:36:41.618Z,77.20
2018-12-19T10:39:19.613Z,77.20
2018-12-19T10:41:57.137Z,76.90
2018-12-19T10:44:34.913Z,76.90
2018-12-19T10:47:12.406Z,76.70
2018-12-19T10:49:49.921Z,76.40
2018-12-19T10:52:27.404Z,76.30
2018-12-19T10:55:04.957Z,76.20
2018-12-19T10:57:42.483Z,76.10
2018-12-19T11:00:38.624Z,76.00
2018-12-19T11:03:16.121Z,75.80
2018-12-19T11:05:54.394Z,75.50
2018-12-19T11:08:31.167Z,75.60
2018-12-19T11:11:08.667Z,75.30
2018-12-19T11:13:46.189Z,75.10
2018-12-19T11:16:23.694Z,74.70
2018-12-19T11:19:01.222Z,74.50
2018-12-19T11:21:38.725Z,74.10
2018-12-19T11:24:16.271Z,73.90
2018-12-19T11:26:53.786Z,73.30
2018-12-19T11:29:31.302Z,73.00
2018-12-19T11:32:08.789Z,72.70
2018-12-19T11:34:46.305Z,72.60
2018-12-19T11:37:23.794Z,72.50
2018-12-19T11:40:01.305Z,72.50
2018-12-19T11:42:38.804Z,72.60
2018-12-19T11:45:16.333Z,72.80
2018-12-19T11:47:53.831Z,72.90
2018-12-19T11:50:31.351Z,73.10
2018-12-19T11:53:08.854Z,73.20
2018-12-19T11:55:46.475Z,73.20
2018-12-19T11:58:23.977Z,73.40
2018-12-19T12:01:01.519Z,73.30
2018-12-19T12:03:39.013Z,73.50
2018-12-19T12:06:16.531Z,74.10
2018-12-19T12:08:54.052Z,74.60
2018-12-19T12:11:31.539Z,75.00
2018-12-19T12:14:09.058Z,75.60
2018-12-19T12:16:46.555Z,76.20
2018-12-19T12:19:24.120Z,76.70
2018-12-19T12:22:01.597Z,77.20
2018-12-19T12:24:39.139Z,77.60
2018-12-19T12:27:16.635Z,78.20
2018-12-19T12:29:54.174Z,78.60
2018-12-19T12:32:31.692Z,79.00
2018-12-19T12:35:10.312Z,79.30
2018-12-19T12:37:47.805Z,79.70
2018-12-19T12:40:25.312Z,80.00
2018-12-19T12:43:02.818Z,80.40
2018-12-19T12:45:40.358Z,80.60
2018-12-19T12:48:17.854Z,80.70
2018-12-19T12:50:55.392Z,80.80
2018-12-19T12:53:32.871Z,81.00
2018-12-19T12:56:10.374Z,81.20
2018-12-19T12:58:47.878Z,81.40
2018-12-19T13:01:25.395Z,81.50
2018-12-19T13:04:02.892Z,81.70
2018-12-19T13:06:40.438Z,81.80
2018-12-19T13:09:17.946Z,82.10
2018-12-19T13:11:58.792Z,82.40
2018-12-19T13:14:33.007Z,82.70
2018-12-19T13:17:10.510Z,83.00
2018-12-19T13:19:48.059Z,83.70
2018-12-19T13:22:25.552Z,83.70
2018-12-19T13:25:03.131Z,84.10
2018-12-19T13:27:40.641Z,84.50
2018-12-19T13:30:18.168Z,84.70
2018-12-19T13:32:55.666Z,85.10
2018-12-19T13:35:33.197Z,85.30
2018-12-19T13:38:10.690Z,85.30
2018-12-19T13:40:48.348Z,85.30
2018-12-19T13:43:25.860Z,85.50
2018-12-19T13:46:03.379Z,85.50
2018-12-19T13:48:40.914Z,85.60
2018-12-19T13:51:18.450Z,85.80
2018-12-19T13:53:55.949Z,86.00
2018-12-19T13:56:33.463Z,86.20
2018-12-19T13:59:10.963Z,86.50
2018-12-19T14:01:48.478Z,86.70
2018-12-19T14:04:26.024Z,86.90
2018-12-19T14:07:03.498Z,87.10
2018-12-19T14:09:41.017Z,87.40
2018-12-19T14:12:18.681Z,87.30
2018-12-19T14:14:56.181Z,87.40
2018-12-19T14:17:33.684Z,87.60
2018-12-19T14:20:11.727Z,87.70
2018-12-19T14:22:49.227Z,88.00
2018-12-19T14:25:26.751Z,88.20
2018-12-19T14:28:04.245Z,88.30
2018-12-19T14:30:41.767Z,88.40
2018-12-19T14:33:19.266Z,88.60
2018-12-19T14:35:56.788Z,88.60
2018-12-19T14:38:34.283Z,88.70
2018-12-19T14:41:11.835Z,88.70
2018-12-19T14:43:49.335Z,88.80
2018-12-19T14:46:26.848Z,88.90
2018-12-19T14:49:04.455Z,89.00
2018-12-19T14:51:41.965Z,89.00
2018-12-19T14:54:19.474Z,89.00
2018-12-19T14:56:56.991Z,89.00
2018-12-19T14:59:34.494Z,89.00
2018-12-19T15:02:12.045Z,89.00
2018-12-19T15:04:49.530Z,89.80
2018-12-19T15:07:27.112Z,89.00
2018-12-19T15:10:04.668Z,88.90
2018-12-19T15:12:42.191Z,89.00
2018-12-19T15:15:19.691Z,89.00
2018-12-19T15:17:57.189Z,88.90
2018-12-19T15:20:34.751Z,89.00
2018-12-19T15:23:12.288Z,89.10
2018-12-19T15:25:49.837Z,89.20
2018-12-19T15:28:27.333Z,89.20
2018-12-19T15:31:04.847Z,89.40
2018-12-19T15:33:42.360Z,89.40
2018-12-19T15:36:19.980Z,89.40
2018-12-19T15:38:57.483Z,89.50
2018-12-19T15:41:35.004Z,89.40
2018-12-19T15:44:12.482Z,89.50
2018-12-19T15:46:50.013Z,89.50
2018-12-19T15:49:27.510Z,89.50
2018-12-19T15:52:05.047Z,89.50
2018-12-19T15:54:42.547Z,89.70
2018-12-19T15:57:20.061Z,89.80
2018-12-19T15:59:57.550Z,89.90
2018-12-19T16:02:35.059Z,90.00
2018-12-19T16:05:12.543Z,90.00
2018-12-19T16:07:50.054Z,90.10
2018-12-19T16:10:27.556Z,90.10
2018-12-19T16:13:05.116Z,90.00
2018-12-19T16:15:42.741Z,90.00
2018-12-19T16:18:20.301Z,90.00
2018-12-19T16:20:58.161Z,90.00
2018-12-19T16:23:35.661Z,90.00
2018-12-19T16:26:13.176Z,90.00
2018-12-19T16:28:50.657Z,90.00
2018-12-19T16:31:28.176Z,90.00
2018-12-19T16:34:05.677Z,90.00
2018-12-19T16:36:43.196Z,90.00
2018-12-19T16:39:20.697Z,90.10
2018-12-19T16:41:58.217Z,90.00
2018-12-19T16:44:35.727Z,90.00
2018-12-19T16:47:13.241Z,90.10
2018-12-19T16:49:50.742Z,90.10
2018-12-19T16:52:28.255Z,90.10
2018-12-19T16:55:05.749Z,90.20
2018-12-19T16:57:43.263Z,90.10
2018-12-19T17:00:20.763Z,90.10
2018-12-19T17:02:58.284Z,90.10
2018-12-19T17:05:35.775Z,90.00
2018-12-19T17:08:13.307Z,89.90
2018-12-19T17:10:50.798Z,89.80
2018-12-19T17:13:28.303Z,89.70
2018-12-19T17:16:05.778Z,89.60
2018-12-19T17:18:43.330Z,89.50
2018-12-19T17:21:21.329Z,89.30
2018-12-19T17:23:58.821Z,89.10
2018-12-19T17:26:36.400Z,88.80
2018-12-19T17:29:14.209Z,88.60
2018-12-19T17:31:51.727Z,88.40
2018-12-19T17:34:29.227Z,88.20
2018-12-19T17:37:06.738Z,87.90
2018-12-19T17:39:44.237Z,87.90
2018-12-19T17:42:21.738Z,87.70
2018-12-19T17:44:59.246Z,87.60
2018-12-19T17:47:36.755Z,87.60
2018-12-19T17:50:14.235Z,87.40
2018-12-19T17:52:51.743Z,87.30
2018-12-19T17:55:29.225Z,87.30
2018-12-19T17:58:06.747Z,87.30
2018-12-19T18:00:44.247Z,87.30
2018-12-19T18:03:21.776Z,87.30
2018-12-19T18:05:59.271Z,87.40
2018-12-19T18:08:36.810Z,87.40
2018-12-19T18:11:14.304Z,87.40
2018-12-19T18:13:51.828Z,87.30
2018-12-19T18:16:29.342Z,87.30
2018-12-19T18:19:06.879Z,88.10
2018-12-19T18:21:44.388Z,87.50
2018-12-19T18:24:22.095Z,87.60
2018-12-19T18:26:59.362Z,87.60
2018-12-19T18:29:36.873Z,87.60
2018-12-19T18:32:14.393Z,87.90
2018-12-19T18:34:51.893Z,88.80
2018-12-19T18:37:29.426Z,88.40
2018-12-19T18:40:06.937Z,88.80
2018-12-19T18:42:44.454Z,89.20
2018-12-19T18:45:21.944Z,89.40
2018-12-19T18:47:59.472Z,89.70
2018-12-19T18:50:36.964Z,90.00
2018-12-19T18:53:14.506Z,90.00
2018-12-19T18:55:51.998Z,90.10
2018-12-19T18:58:29.508Z,90.20
2018-12-19T19:01:07.003Z,90.20
2018-12-19T19:03:44.563Z,90.20
2018-12-19T19:06:22.005Z,90.20
2018-12-19T19:08:59.517Z,90.20
2018-12-19T19:11:37.006Z,90.10
2018-12-19T19:14:14.508Z,90.10
2018-12-19T19:16:52.008Z,90.10
2018-12-19T19:19:29.548Z,90.20
2018-12-19T19:22:07.060Z,90.20
2018-12-19T19:24:44.567Z,90.20
2018-12-19T19:27:22.083Z,90.20
2018-12-19T19:29:59.576Z,90.10
2018-12-19T19:32:37.090Z,90.00
2018-12-19T19:35:14.581Z,89.80
2018-12-19T19:37:52.130Z,89.50
2018-12-19T19:40:29.622Z,89.30
2018-12-19T19:43:07.139Z,89.30
2018-12-19T19:45:44.625Z,89.30
2018-12-19T19:48:22.165Z,89.20
2018-12-19T19:50:59.663Z,89.20
2018-12-19T19:53:37.172Z,89.10
2018-12-19T19:56:14.659Z,89.10
2018-12-19T19:58:52.167Z,89.20
2018-12-19T20:01:29.644Z,89.40
2018-12-19T20:04:07.153Z,89.50
2018-12-19T20:06:44.659Z,89.60
2018-12-19T20:09:22.181Z,89.70
2018-12-19T20:11:59.681Z,89.80
2018-12-19T20:14:37.221Z,90.00
2018-12-19T20:17:27.250Z,90.00
2018-12-19T20:20:04.814Z,90.10
2018-12-19T20:22:42.318Z,90.10
2018-12-19T20:25:21.006Z,90.10
2018-12-19T20:27:57.444Z,90.10
2018-12-19T20:30:34.931Z,90.10
2018-12-19T20:33:12.444Z,90.20
2018-12-19T20:35:49.931Z,90.20
2018-12-19T20:38:27.449Z,90.20
2018-12-19T20:41:04.950Z,90.10
2018-12-19T20:43:42.473Z,90.20
2018-12-19T20:46:19.962Z,90.20
2018-12-19T20:48:57.479Z,90.20
2018-12-19T20:51:34.984Z,90.20
2018-12-19T20:54:12.542Z,90.20
2018-12-19T20:56:50.145Z,90.20
2018-12-19T20:59:27.674Z,90.20
2018-12-19T21:02:05.186Z,90.10
2018-12-19T21:04:42.777Z,90.00
2018-12-19T21:07:20.279Z,90.00
2018-12-19T21:09:57.794Z,90.40
2018-12-19T21:12:35.302Z,90.30
2018-12-19T21:15:12.941Z,90.50
2018-12-19T21:18:09.086Z,90.70
2018-12-19T21:20:46.620Z,90.80
2018-12-19T21:23:24.129Z,91.00
2018-12-19T21:26:01.622Z,91.10
2018-12-19T21:28:39.140Z,91.20
2018-12-19T21:31:16.638Z,91.30
2018-12-19T21:33:54.187Z,91.40
2018-12-19T21:36:31.664Z,91.30
2018-12-19T21:39:13.064Z,91.40
2018-12-19T21:41:50.551Z,91.40
2018-12-19T21:44:28.021Z,91.50
2018-12-19T21:47:05.521Z,91.60
2018-12-19T21:49:43.048Z,91.60
2018-12-19T21:52:20.529Z,91.60
2018-12-19T21:54:58.047Z,91.60
2018-12-19T21:57:35.540Z,91.70
2018-12-19T22:00:29.631Z,91.70
2018-12-19T22:03:10.639Z,91.70
2018-12-19T22:05:48.129Z,91.70
2018-12-19T22:08:25.637Z,91.80
2018-12-19T22:11:03.187Z,91.90
2018-12-19T22:13:40.665Z,92.00
2018-12-19T22:16:36.783Z,92.00
2018-12-19T22:19:14.302Z,92.00
2018-12-19T22:21:51.841Z,92.00
2018-12-19T22:24:29.366Z,92.00
2018-12-19T22:27:06.909Z,92.00
2018-12-19T22:29:44.339Z,92.00
2018-12-19T22:32:21.883Z,92.00
2018-12-19T22:34:59.387Z,92.00
2018-12-19T22:37:36.882Z,92.00
2018-12-19T22:40:15.362Z,92.10
2018-12-19T22:42:52.807Z,92.10
2018-12-19T22:45:30.323Z,92.20
2018-12-19T22:48:07.822Z,92.20
2018-12-19T22:50:45.388Z,92.20
2018-12-19T22:53:22.882Z,92.20
2018-12-19T22:56:00.357Z,92.20
2018-12-19T22:58:37.862Z,92.20
2018-12-19T23:01:33.977Z,92.20
2018-12-19T23:04:11.613Z,92.10
2018-12-19T23:06:48.988Z,92.00
2018-12-19T23:09:26.516Z,92.00
2018-12-19T23:12:04.122Z,91.90
2018-12-19T23:14:41.532Z,91.80
2018-12-19T23:17:37.687Z,91.80
2018-12-19T23:20:15.944Z,91.70
2018-12-19T23:22:53.441Z,91.60
2018-12-19T23:25:30.989Z,91.60
2018-12-19T23:28:08.405Z,91.60
2018-12-19T23:30:45.914Z,91.60
2018-12-19T23:33:23.497Z,91.60
2018-12-19T23:36:00.950Z,91.60
2018-12-19T23:38:38.441Z,91.60
2018-12-19T23:41:15.991Z,91.60
2018-12-19T23:43:53.547Z,91.60
2018-12-19T23:46:31.002Z,91.70
2018-12-19T23:49:08.490Z,91.70
2018-12-19T23:51:46.013Z,91.70
2018-12-19T23:54:29.019Z,91.60
2018-12-19T23:57:01.337Z,91.60
2018-12-19T23:59:38.722Z,91.70
